Latest Weather Observations for Willis Island

IDQ60801

Issued at 6:02 pm EST Sunday 11 December 2016 (issued every 30 minutes, with the page automatically refreshed every 10 minutes)

About weather observations | Map of weather stations | Latest weather observations for QLD | Other Formats
Station Details ID: 200283 Name: WILLIS ISLAND Lat: -16.29 Lon: 149.97 Height: 9.29 m
Data from the previous 72 hours. | See also: Recent months at Willis Island
Date/Time
EST
Temp
°C
App
Temp
°C
Dew
Point
°C
Rel
Hum
%
Delta-T
°C
Wind Press
QNH
hPa
Press
MSL
hPa
Rain since
9am
mm
Dir  Spd
km/h
Gust
km/h
Spd
kts
Gust
kts
11/06:00pm 27.5 26.2 23.1 77 3.0 SE 35 39 19 21 1010.5 1010.4 0.0
11/05:30pm 27.6 26.9 23.2 77 3.0 ESE 32 35 17 19 1010.1 1010.0 0.0
11/05:00pm 28.2 27.2 22.6 71 3.8 ESE 32 35 17 19 1009.7 1009.6 0.0
11/04:30pm 28.5 28.3 22.8 71 3.9 SE 28 33 15 18 1009.7 1009.6 0.0
11/04:00pm 29.2 29.1 22.9 69 4.3 SE 28 32 15 17 1009.6 1009.5 0.0
11/03:30pm 29.3 28.2 22.5 67 4.6 ESE 32 35 17 19 1009.6 1009.5 0.0
11/03:00pm 29.6 28.6 22.7 66 4.7 ESE 32 35 17 19 1009.6 1009.5 0.0
11/02:30pm 30.0 29.1 22.8 65 4.9 ESE 32 37 17 20 1010.0 1009.9 0.0
11/02:00pm 29.8 29.7 23.6 69 4.3 ESE 30 33 16 18 1010.2 1010.1 0.0
11/01:30pm 29.4 29.0 23.1 69 4.3 ESE 30 33 16 18 1010.5 1010.4 0.0
11/01:00pm 29.6 28.8 23.0 67 4.5 ESE 32 35 17 19 1010.8 1010.7 0.0
11/12:30pm 29.9 29.6 23.2 67 4.6 ESE 30 33 16 18 1011.0 1010.9 0.0
11/12:00pm 29.7 28.6 22.5 65 4.9 ESE 32 37 17 20 1011.1 1011.0 0.0
11/11:30am 29.5 28.6 22.8 67 4.6 ESE 32 35 17 19 1011.5 1011.4 0.0
11/11:00am 29.7 29.2 22.8 66 4.7 ESE 30 33 16 18 1011.8 1011.7 0.0
11/10:30am 29.4 28.8 22.6 67 4.6 E 30 33 16 18 1011.9 1011.8 0.0
11/10:00am 29.9 29.3 23.4 68 4.5 ESE 32 35 17 19 1012.0 1011.9 0.0
11/09:30am 29.5 28.7 23.4 69 4.2 E 33 37 18 20 1012.0 1011.9 0.0
11/09:00am 29.0 28.1 22.8 69 4.2 ESE 32 35 17 19 1012.0 1011.9 0.0
11/08:30am 28.7 28.3 23.1 71 3.8 ESE 30 33 16 18 1011.9 1011.8 0.0
11/08:00am 28.6 28.0 22.7 70 4.0 ESE 30 35 16 19 1011.8 1011.7 0.0
11/07:30am 28.3 28.7 23.8 76 3.1 ESE 28 32 15 17 1011.8 1011.7 0.0
11/07:00am 27.6 28.3 23.7 79 2.7 ESE 26 30 14 16 1011.4 1011.3 0.0
11/06:30am 27.3 27.5 22.7 76 3.1 ESE 26 32 14 17 1011.0 1010.9 0.0
11/06:00am 26.9 27.3 23.2 80 2.5 ESE 26 32 14 17 1010.6 1010.5 0.0
11/05:30am 26.5 27.2 23.0 81 2.4 SE 24 30 13 16 1010.2 1010.1 0.0
11/05:00am 26.5 26.7 22.7 79 2.6 SE 26 30 14 16 1009.8 1009.7 0.0
11/04:30am 26.4 26.5 22.6 79 2.6 SE 26 32 14 17 1009.5 1009.4 0.0
11/04:00am 26.4 26.9 22.7 80 2.5 SE 24 28 13 15 1009.2 1009.1 0.0
11/03:30am 26.4 26.5 22.6 79 2.6 SE 26 32 14 17 1009.2 1009.1 0.0
11/03:00am 26.4 26.5 22.6 79 2.6 SE 26 32 14 17 1009.1 1009.0 0.0
11/02:30am 26.5 26.9 22.5 78 2.7 SE 24 28 13 15 1009.4 1009.3 0.0
11/02:00am 26.4 26.8 22.4 78 2.7 SE 24 28 13 15 1009.9 1009.8 0.0
11/01:30am 26.4 26.5 21.9 76 3.0 ESE 24 28 13 15 1010.0 1009.9 0.0
11/01:00am 26.5 26.9 22.5 78 2.7 SE 24 26 13 14 1010.5 1010.4 0.0
11/12:30am 26.4 26.5 21.9 76 3.0 ESE 24 28 13 15 1010.6 1010.5 0.0
11/12:00am 26.5 26.1 21.7 75 3.2 ESE 26 30 14 16 1011.2 1011.1 0.0
 
Date/Time
EST
Temp
°C
App
Temp
°C
Dew
Point
°C
Rel
Hum
%
Delta-T
°C
Wind Press
QNH
hPa
Press
MSL
hPa
Rain since
9am
mm
Dir  Spd
km/h
Gust
km/h
Spd
kts
Gust
kts
10/11:30pm 26.5 26.4 22.2 77 2.9 ESE 26 28 14 15 1011.8 1011.7 0.0
10/11:00pm 26.5 26.6 21.9 76 3.1 ESE 24 28 13 15 1012.3 1012.2 0.0
10/10:30pm 26.6 26.5 21.5 73 3.4 ESE 24 28 13 15 1012.8 1012.7 0.0
10/10:00pm 26.6 26.8 22.0 76 3.1 E 24 28 13 15 1012.7 1012.6 0.0
10/09:30pm 26.7 25.8 21.4 72 3.5 E 28 33 15 18 1012.5 1012.4 0.0
10/09:00pm 26.7 25.6 21.1 71 3.7 ESE 28 32 15 17 1012.5 1012.4 0.0
10/08:30pm 26.8 25.7 21.1 71 3.8 ESE 28 32 15 17 1012.2 1012.1 0.0
10/08:00pm 26.8 25.5 21.4 72 3.6 ESE 30 35 16 19 1011.7 1011.6 0.0
10/07:30pm 26.9 25.2 21.3 71 3.7 ESE 32 35 17 19 1011.4 1011.3 0.0
10/07:00pm 27.1 25.6 21.7 72 3.6 ESE 32 35 17 19 1011.1 1011.0 0.0
10/06:30pm 27.1 26.5 21.9 73 3.5 ESE 28 32 15 17 1010.8 1010.7 0.0
10/06:00pm 27.3 26.1 21.5 70 3.9 ESE 30 35 16 19 1010.6 1010.5 0.0
10/05:30pm 27.5 26.4 21.7 70 3.9 ESE 30 33 16 18 1010.3 1010.2 0.0
10/05:00pm 27.7 26.8 22.2 72 3.7 ESE 30 33 16 18 1010.1 1010.0 0.0
10/04:30pm 28.3 27.8 22.2 69 4.1 ESE 28 32 15 17 1010.0 1009.9 0.0
10/04:00pm 28.5 28.1 22.3 69 4.2 ESE 28 32 15 17 1010.1 1010.0 0.0
10/03:30pm 29.3 28.7 21.9 64 5.0 E 28 32 15 17 1010.0 1009.9 0.0
10/03:00pm 29.5 28.5 21.3 61 5.5 E 28 32 15 17 1010.1 1010.0 0.0
10/02:30pm 30.1 28.9 21.6 60 5.7 E 30 33 16 18 1010.2 1010.1 0.0
10/02:00pm 30.5 30.4 22.3 61 5.6 ESE 26 32 14 17 1010.5 1010.4 0.0
10/01:30pm 30.2 30.0 22.1 62 5.5 ESE 26 32 14 17 1010.7 1010.6 0.0
10/01:00pm 30.6 31.0 22.5 62 5.5 ESE 24 30 13 16 1011.1 1011.0 0.0
10/12:30pm 30.3 30.2 22.2 62 5.5 E 26 28 14 15 1011.3 1011.2 0.0
10/12:00pm 30.2 30.8 22.1 62 5.5 E 22 28 12 15 1011.5 1011.4 0.0
10/11:30am 30.4 31.1 22.3 62 5.5 ESE 22 26 12 14 1012.0 1011.9 0.0
10/11:00am 30.7 31.5 22.5 61 5.6 ESE 22 26 12 14 1012.1 1012.0 0.0
10/10:30am 30.4 30.7 22.3 62 5.5 ESE 24 28 13 15 1012.1 1012.0 0.0
10/10:00am 30.1 30.0 22.3 63 5.3 ESE 26 30 14 16 1012.0 1011.9 0.0
10/09:30am 29.9 29.9 22.4 64 5.1 ESE 26 32 14 17 1012.1 1012.0 0.0
10/09:00am 29.8 29.2 22.0 63 5.3 ESE 28 32 15 17 1011.9 1011.8 0.0
10/08:30am 29.3 28.8 22.2 65 4.8 ESE 28 32 15 17 1011.9 1011.8 0.0
10/08:00am 28.6 28.1 22.2 68 4.3 E 28 32 15 17 1011.8 1011.7 0.0
10/07:30am 28.3 27.9 22.4 70 4.0 ESE 28 32 15 17 1011.7 1011.6 0.0
10/07:00am 27.9 28.0 22.6 73 3.6 ESE 26 32 14 17 1011.6 1011.5 0.0
10/06:30am 27.1 27.4 23.0 78 2.8 ESE 26 30 14 16 1011.3 1011.2 0.0
10/06:00am 27.0 27.1 22.6 77 3.0 ESE 26 30 14 16 1010.9 1010.8 0.0
10/05:30am 26.6 26.0 22.0 76 3.1 ESE 28 32 15 17 1010.5 1010.4 0.0
10/05:00am 26.5 26.3 22.7 79 2.6 ESE 28 33 15 18 1009.9 1009.8 0.0
10/04:30am 26.5 26.1 22.3 78 2.8 ESE 28 32 15 17 1009.7 1009.6 0.0
10/04:00am 26.5 26.0 22.8 80 2.5 ESE 30 35 16 19 1009.5 1009.4 0.0
10/03:30am 26.5 25.1 22.0 76 3.0 ESE 32 35 17 19 1009.4 1009.3 0.0
10/03:00am 26.6 25.4 22.3 77 2.9 ESE 32 35 17 19 1009.6 1009.5 0.0
10/02:30am 26.6 26.5 22.9 80 2.5 ESE 28 33 15 18 1009.6 1009.5 0.0
10/02:00am 26.6 26.3 22.5 78 2.8 ESE 28 30 15 16 1009.9 1009.8 0.0
10/01:30am 26.6 26.1 22.1 76 3.0 ESE 28 35 15 19 1010.0 1009.9 0.0
10/01:00am 26.7 26.6 22.9 79 2.6 ESE 28 33 15 18 1010.3 1010.2 0.0
10/12:30am 26.7 26.5 22.7 79 2.7 ESE 28 32 15 17 1010.5 1010.4 0.0
10/12:00am 26.6 26.1 22.8 79 2.6 ESE 30 33 16 18 1010.7 1010.6 0.0
 
Date/Time
EST
Temp
°C
App
Temp
°C
Dew
Point
°C
Rel
Hum
%
Delta-T
°C
Wind Press
QNH
hPa
Press
MSL
hPa
Rain since
9am
mm
Dir  Spd
km/h
Gust
km/h
Spd
kts
Gust
kts
09/11:30pm 26.7 26.7 22.4 77 2.9 ESE 26 30 14 16 1011.0 1010.9 0.0
09/11:00pm 26.7 27.1 22.4 77 2.9 ESE 24 30 13 16 1011.4 1011.3 0.0
09/10:30pm 26.7 26.3 21.6 73 3.4 E 26 30 14 16 1011.5 1011.4 0.0
09/10:00pm 26.8 26.7 22.2 76 3.1 E 26 32 14 17 1011.6 1011.5 0.0
09/09:30pm 26.8 26.0 21.7 73 3.4 E 28 32 15 17 1011.5 1011.4 0.0
09/09:00pm 26.9 26.8 22.3 76 3.1 E 26 30 14 16 1011.4 1011.3 0.0
09/08:30pm 26.9 26.3 22.0 74 3.3 E 28 32 15 17 1011.1 1011.0 0.0
09/08:00pm 26.9 25.9 22.0 74 3.3 ESE 30 35 16 19 1010.8 1010.7 0.0
09/07:30pm 27.0 27.1 22.6 77 3.0 ESE 26 30 14 16 1010.5 1010.4 0.0
09/07:00pm 27.0 26.2 21.6 72 3.6 SE 28 32 15 17 1010.3 1010.2 0.0
09/06:30pm 27.3 27.4 21.9 72 3.6 SE 24 30 13 16 1010.1 1010.0 0.0
09/06:00pm 27.5 27.9 22.5 74 3.4 SE 24 28 13 15 1009.7 1009.6 0.0
09/05:30pm 27.9 28.1 22.0 70 4.0 SE 24 26 13 14 1009.4 1009.3 0.0
09/05:00pm 28.4 28.6 22.0 68 4.3 SE 24 30 13 16 1009.2 1009.1 0.0
09/04:30pm 28.9 29.3 22.4 68 4.4 ESE 24 28 13 15 1008.9 1008.8 0.0
09/04:00pm 29.1 29.5 21.7 64 5.0 ESE 22 26 12 14 1008.7 1008.6 0.0
09/03:30pm 29.8 30.6 21.8 62 5.4 ESE 20 26 11 14 1008.5 1008.4 0.0
09/03:00pm 29.9 30.6 22.2 63 5.2 E 22 26 12 14 1008.6 1008.5 0.0
09/02:30pm 29.6 29.8 22.1 64 5.1 E 24 28 13 15 1008.6 1008.5 0.0
09/02:00pm 29.8 29.6 22.1 63 5.2 E 26 30 14 16 1008.7 1008.6 0.0
09/01:30pm 29.7 30.0 22.2 64 5.1 E 24 28 13 15 1009.1 1009.0 0.0
09/01:00pm 29.3 30.1 22.4 66 4.7 E 22 26 12 14 1009.5 1009.4 0.0
09/12:30pm 30.1 30.9 22.5 63 5.2 E 22 28 12 15 1009.6 1009.5 0.0
09/12:00pm 30.4 31.6 22.5 62 5.4 ESE 20 24 11 13 1010.0 1009.9 0.0
09/11:30am 30.4 31.7 22.6 63 5.3 E 20 24 11 13 1010.4 1010.3 0.0
09/11:00am 30.2 31.5 22.4 63 5.3 E 19 22 10 12 1010.5 1010.4 0.0
09/10:30am 29.9 31.0 22.4 64 5.1 E 20 22 11 12 1010.8 1010.7 0.0
09/10:00am 29.8 31.1 22.4 64 5.0 E 19 22 10 12 1010.9 1010.8 0.0
09/09:30am 29.6 30.8 22.2 64 5.0 E 19 20 10 11 1010.9 1010.8 0.0
09/09:00am 29.5 30.8 22.6 66 4.7 E 20 22 11 12 1010.9 1010.8 0.6
09/08:30am 28.6 29.9 22.6 70 4.1 E 20 24 11 13 1010.9 1010.8 0.6
09/08:00am 28.6 29.7 22.4 69 4.2 E 20 24 11 13 1011.0 1010.9 0.6
09/07:30am 28.2 29.3 22.3 70 4.0 E 20 22 11 12 1011.0 1010.9 0.6
09/07:00am 27.7 28.9 22.5 73 3.5 E 20 24 11 13 1010.8 1010.7 0.6
09/06:30am 27.3 28.1 22.4 74 3.3 E 22 26 12 14 1010.6 1010.5 0.6
09/06:00am 26.9 28.6 23.1 80 2.6 E 19 24 10 13 1010.4 1010.3 0.6
09/05:30am 26.5 27.8 22.7 79 2.6 E 20 24 11 13 1010.1 1010.0 0.6
09/05:00am 26.4 27.6 22.2 78 2.8 E 19 20 10 11 1009.7 1009.6 0.6
09/04:30am 26.4 28.2 22.6 79 2.6 E 17 20 9 11 1009.4 1009.3 0.6
09/04:00am 26.4 27.7 22.4 78 2.7 ENE 19 20 10 11 1009.3 1009.2 0.6
09/03:30am 26.5 28.4 22.7 79 2.6 E 17 20 9 11 1009.2 1009.1 0.6
09/03:00am 26.5 28.0 22.7 79 2.6 E 19 20 10 11 1009.0 1008.9 0.6
09/02:30am 26.6 28.2 23.2 81 2.3 ENE 20 24 11 13 1008.7 1008.6 0.6
09/02:00am 26.5 27.5 22.8 80 2.5 ENE 22 24 12 13 1008.6 1008.5 0.6
09/01:30am 26.6 28.0 22.9 80 2.5 ENE 20 24 11 13 1008.8 1008.7 0.6
09/01:00am 26.7 28.3 23.2 81 2.4 ENE 20 26 11 14 1009.0 1008.9 0.6
09/12:30am 26.7 27.2 22.7 79 2.7 ENE 24 28 13 15 1009.2 1009.1 0.6
09/12:00am 26.8 26.9 22.5 77 2.9 ENE 26 30 14 16 1009.6 1009.5 0.6
 
Date/Time
EST
Temp
°C
App
Temp
°C
Dew
Point
°C
Rel
Hum
%
Delta-T
°C
Wind Press
QNH
hPa
Press
MSL
hPa
Rain since
9am
mm
Dir  Spd
km/h
Gust
km/h
Spd
kts
Gust
kts
08/11:30pm 26.9 27.3 23.1 80 2.6 ENE 26 30 14 16 1009.9 1009.8 0.6
08/11:00pm 26.9 26.9 23.1 80 2.6 ENE 28 33 15 18 1010.2 1010.1 0.6
08/10:30pm 27.0 27.6 23.5 81 2.4 ENE 26 32 14 17 1010.2 1010.1 0.6
08/10:00pm 27.0 28.0 23.5 81 2.4 ENE 24 28 13 15 1010.3 1010.2 0.6
08/09:30pm 27.0 27.4 23.2 80 2.6 ENE 26 30 14 16 1010.3 1010.2 0.6
08/09:00pm 27.0 27.1 23.3 80 2.5 ENE 28 30 15 16 1010.3 1010.2 0.6
08/08:30pm 27.1 27.2 23.3 80 2.6 ENE 28 32 15 17 1010.1 1010.0 0.6
08/08:00pm 27.2 27.5 23.6 81 2.5 ENE 28 32 15 17 1010.0 1009.9 0.6
08/07:30pm 27.2 27.5 23.6 81 2.5 ENE 28 32 15 17 1009.7 1009.6 0.6
08/07:00pm 27.1 27.8 23.6 81 2.4 ENE 26 30 14 16 1009.6 1009.5 0.6
08/06:30pm 26.4 28.0 23.2 82 2.2 E 20 30 11 16 1009.5 1009.4 0.6

Other Formats:

Comma delimited format used in spreadsheet applications
http://www.bom.gov.au/fwo/IDQ60801/IDQ60801.94299.axf

JavaScript Object Notation format (JSON) in row-major order
http://www.bom.gov.au/fwo/IDQ60801/IDQ60801.94299.json